createdAt,value
2023-04-23T00:02:23.751Z,99972.81
2023-04-23T00:04:54.289Z,99963.94
2023-04-23T00:07:22.499Z,99961.25
2023-04-23T00:09:53.876Z,99952.34
2023-04-23T00:12:22.229Z,99955.88
2023-04-23T00:14:50.258Z,99956.78
2023-04-23T00:17:18.185Z,99955.88
2023-04-23T00:19:46.111Z,99947.88
2023-04-23T00:22:14.519Z,99952.31
2023-04-23T00:24:42.340Z,99949.66
2023-04-23T00:27:11.667Z,99943.38
2023-04-23T00:29:39.461Z,99941.69
2023-04-23T00:32:09.098Z,99947.91
2023-04-23T00:34:36.927Z,99945.28
2023-04-23T00:37:06.776Z,99946.22
2023-04-23T00:39:35.880Z,99946.25
2023-04-23T00:42:10.534Z,99948.97
2023-04-23T00:44:40.852Z,99947.28
2023-04-23T00:47:08.886Z,99946.47
2023-04-23T00:49:36.901Z,99947.50
2023-04-23T00:52:05.150Z,99960.00
2023-04-23T00:54:32.893Z,99952.94
2023-04-23T00:57:01.000Z,99953.00
2023-04-23T00:59:29.771Z,99949.50
2023-04-23T01:01:59.869Z,99949.50
2023-04-23T01:04:31.211Z,99957.50
2023-04-23T01:07:00.551Z,99952.25
2023-04-23T01:09:28.788Z,99956.75
2023-04-23T01:11:58.718Z,99955.03
2023-04-23T01:14:27.342Z,99958.63
2023-04-23T01:16:56.301Z,99957.81
2023-04-23T01:19:25.583Z,99962.31
2023-04-23T01:21:53.447Z,99965.94
2023-04-23T01:24:22.595Z,99957.09
2023-04-23T01:26:51.562Z,99965.16
2023-04-23T01:29:19.417Z,99956.25
2023-04-23T01:31:48.494Z,99958.91
2023-04-23T01:34:16.598Z,99960.75
2023-04-23T01:36:46.609Z,99956.34
2023-04-23T01:39:14.353Z,99954.59
2023-04-23T01:41:43.595Z,99953.72
2023-04-23T01:44:11.584Z,99956.41
2023-04-23T01:46:39.420Z,99944.81
2023-04-23T01:49:07.424Z,99942.13
2023-04-23T01:51:35.828Z,99942.13
2023-04-23T01:54:03.580Z,99947.44
2023-04-23T01:56:33.415Z,99939.44
2023-04-23T01:59:02.810Z,99938.59
2023-04-23T02:01:44.151Z,99947.44
2023-04-23T02:04:13.575Z,99935.91
2023-04-23T02:06:42.790Z,99933.25
2023-04-23T02:09:11.655Z,99928.81
2023-04-23T02:11:39.749Z,99943.91
2023-04-23T02:14:09.783Z,99939.56
2023-04-23T02:16:37.782Z,99939.59
2023-04-23T02:19:05.826Z,99943.16
2023-04-23T02:21:33.641Z,99937.03
2023-04-23T02:24:01.433Z,99936.19
2023-04-23T02:26:29.749Z,99937.97
2023-04-23T02:28:57.468Z,99937.13
2023-04-23T02:31:26.760Z,99937.13
2023-04-23T02:33:55.847Z,99945.13
2023-04-23T02:36:23.662Z,99942.50
2023-04-23T02:38:51.553Z,99933.63
2023-04-23T02:41:19.314Z,99947.00
2023-04-23T02:43:47.065Z,99940.75
2023-04-23T02:46:14.803Z,99938.13
2023-04-23T02:48:43.935Z,99944.34
2023-04-23T02:51:13.377Z,99936.34
2023-04-23T02:53:41.192Z,99941.66
2023-04-23T02:56:08.958Z,99939.03
2023-04-23T02:58:36.948Z,99937.22
2023-04-23T03:01:05.337Z,99940.00
2023-04-23T03:03:34.100Z,99937.38
2023-04-23T03:06:07.790Z,99939.25
2023-04-23T03:08:35.605Z,99936.63
2023-04-23T03:11:03.295Z,99948.19
2023-04-23T03:13:31.153Z,99939.38
2023-04-23T03:15:58.896Z,99939.41
2023-04-23T03:18:27.565Z,99939.41
2023-04-23T03:20:56.946Z,99932.31
2023-04-23T03:23:26.076Z,99930.53
2023-04-23T03:25:53.758Z,99937.66
2023-04-23T03:28:21.454Z,99935.88
2023-04-23T03:30:49.193Z,99943.88
2023-04-23T03:33:17.151Z,99936.78
2023-04-23T03:35:45.026Z,99936.78
2023-04-23T03:38:17.440Z,99933.22
2023-04-23T03:40:46.787Z,99939.44
2023-04-23T03:43:14.542Z,99941.22
2023-04-23T03:46:00.719Z,99947.44
2023-04-23T03:48:30.294Z,99946.59
2023-04-23T03:50:58.789Z,99955.47
2023-04-23T03:53:35.707Z,99946.66
2023-04-23T03:56:25.148Z,99950.28
2023-04-23T03:59:08.868Z,99940.56
2023-04-23T04:01:37.077Z,99951.31
2023-04-23T04:04:05.154Z,99955.84
2023-04-23T04:06:33.977Z,99950.63
2023-04-23T04:09:01.720Z,99948.91
2023-04-23T04:11:31.499Z,99953.38
2023-04-23T04:13:59.211Z,99952.47
2023-04-23T04:16:26.933Z,99947.16
2023-04-23T04:18:56.321Z,99953.41
2023-04-23T04:21:24.406Z,99951.69
2023-04-23T04:23:52.115Z,99953.53
2023-04-23T04:26:20.448Z,99958.88
2023-04-23T04:28:49.484Z,99956.22
2023-04-23T04:31:17.287Z,99965.16
2023-04-23T04:33:46.400Z,99961.63
2023-04-23T04:36:14.603Z,99968.78
2023-04-23T04:38:42.281Z,99967.94
2023-04-23T04:41:11.474Z,99969.75
2023-04-23T04:43:39.232Z,99963.56
2023-04-23T04:46:11.723Z,99968.06
2023-04-23T04:48:40.124Z,99965.41
2023-04-23T04:51:07.984Z,99960.09
2023-04-23T04:53:36.190Z,99969.88
2023-04-23T04:56:03.930Z,99972.50
2023-04-23T04:58:31.814Z,99967.16
2023-04-23T05:01:00.298Z,99967.16
2023-04-23T05:03:29.665Z,99977.84
2023-04-23T05:05:58.856Z,99970.75
2023-04-23T05:08:26.632Z,99976.13
2023-04-23T05:10:54.866Z,99973.50
2023-04-23T05:13:23.160Z,99972.56
2023-04-23T05:15:50.816Z,99969.91
2023-04-23T05:18:18.522Z,99979.69
2023-04-23T05:20:47.615Z,99976.06
2023-04-23T05:23:15.357Z,99974.31
2023-04-23T05:25:43.050Z,99968.97
2023-04-23T05:28:10.757Z,99966.28
2023-04-23T05:30:38.851Z,99978.66
2023-04-23T05:33:06.743Z,99970.63
2023-04-23T05:35:34.510Z,99979.44
2023-04-23T05:38:05.030Z,99984.78
2023-04-23T05:40:32.894Z,99983.88
2023-04-23T05:43:00.819Z,99990.06
2023-04-23T05:45:28.948Z,99998.06
2023-04-23T05:47:56.686Z,99998.09
2023-04-23T05:50:24.663Z,99999.94
2023-04-23T05:52:52.424Z,100002.63
2023-04-23T05:55:23.880Z,100004.44
2023-04-23T05:57:51.609Z,100000.94
2023-04-23T06:00:19.471Z,100001.84
2023-04-23T06:02:47.994Z,100003.66
2023-04-23T06:05:16.595Z,100005.38
2023-04-23T06:07:44.749Z,100009.84
2023-04-23T06:10:13.228Z,100014.31
2023-04-23T06:12:42.526Z,100015.19
2023-04-23T06:15:11.412Z,100011.66
2023-04-23T06:17:39.398Z,100017.84
2023-04-23T06:20:09.035Z,100012.53
2023-04-23T06:22:36.889Z,100015.19
2023-04-23T06:25:05.190Z,100020.50
2023-04-23T06:27:33.869Z,100017.84
2023-04-23T06:30:10.478Z,100020.53
2023-04-23T06:32:39.002Z,100033.03
2023-04-23T06:35:08.474Z,100041.03
2023-04-23T06:37:36.643Z,100027.72
2023-04-23T06:40:04.790Z,100038.44
2023-04-23T06:42:32.508Z,100036.63
2023-04-23T06:45:21.525Z,100040.22
2023-04-23T06:47:49.828Z,100043.72
2023-04-23T06:50:18.229Z,100036.59
2023-04-23T06:52:46.151Z,100043.69
2023-04-23T06:55:14.009Z,100046.38
2023-04-23T06:57:41.780Z,100049.09
2023-04-23T07:00:11.763Z,100047.28
2023-04-23T07:02:43.720Z,100042.03
2023-04-23T07:05:11.747Z,100040.25
2023-04-23T07:07:40.714Z,100045.59
2023-04-23T07:10:10.191Z,100043.75
2023-04-23T07:12:38.148Z,100045.50
2023-04-23T07:15:07.716Z,100057.81
2023-04-23T07:17:36.076Z,100056.78
2023-04-23T07:20:06.640Z,100054.94
2023-04-23T07:22:34.504Z,100056.69
2023-04-23T07:25:02.599Z,100061.09
2023-04-23T07:27:30.346Z,100061.94
2023-04-23T07:29:58.580Z,100064.56
2023-04-23T07:32:28.376Z,100069.91
2023-04-23T07:34:56.634Z,100068.13
2023-04-23T07:37:25.737Z,100071.66
2023-04-23T07:39:54.012Z,100065.47
2023-04-23T07:42:21.768Z,100065.44
2023-04-23T07:44:49.572Z,100074.19
2023-04-23T07:47:17.226Z,100066.19
2023-04-23T07:49:45.028Z,100076.72
2023-04-23T07:52:12.895Z,100075.78
2023-04-23T07:54:42.036Z,100081.06
2023-04-23T07:57:10.395Z,100086.41
2023-04-23T07:59:39.501Z,100077.53
2023-04-23T08:02:07.702Z,100072.25
2023-04-23T08:04:35.676Z,100083.81
2023-04-23T08:07:03.742Z,100082.94
2023-04-23T08:09:31.716Z,100082.97
2023-04-23T08:12:02.065Z,100092.75
2023-04-23T08:14:29.773Z,100090.06
2023-04-23T08:16:57.675Z,100089.16
2023-04-23T08:19:25.862Z,100090.03
2023-04-23T08:21:53.951Z,100084.56
2023-04-23T08:24:21.776Z,100075.63
2023-04-23T08:26:49.868Z,100082.53
2023-04-23T08:29:19.046Z,100082.47
2023-04-23T08:31:46.842Z,100081.44
2023-04-23T08:34:15.041Z,100081.38
2023-04-23T08:36:42.924Z,100075.94
2023-04-23T08:39:10.806Z,100073.16
2023-04-23T08:41:42.689Z,100073.84
2023-04-23T08:44:14.886Z,100074.50
2023-04-23T08:46:46.437Z,100067.03
2023-04-23T08:49:16.142Z,100072.16
2023-04-23T08:51:49.278Z,100068.41
2023-04-23T08:54:23.516Z,100068.72
2023-04-23T08:56:52.584Z,100074.22
2023-04-23T08:59:23.055Z,100082.78
2023-04-23T09:01:52.821Z,100084.38
2023-04-23T09:04:21.131Z,100084.25
2023-04-23T09:06:48.868Z,100092.19
2023-04-23T09:09:17.976Z,100090.25
2023-04-23T09:11:46.128Z,100093.72
2023-04-23T09:14:14.290Z,100092.72
2023-04-23T09:16:42.758Z,100101.44
2023-04-23T09:19:12.618Z,100099.75
2023-04-23T09:21:41.004Z,100104.16
2023-04-23T09:24:12.432Z,100100.41
2023-04-23T09:26:46.782Z,100101.09
2023-04-23T09:29:17.488Z,100097.91
2023-04-23T09:31:47.638Z,100100.94
2023-04-23T09:34:18.508Z,100099.47
2023-04-23T09:36:47.136Z,100097.34
2023-04-23T09:39:15.436Z,100092.00
2023-04-23T09:41:43.313Z,100089.44
2023-04-23T09:44:12.398Z,100084.41
2023-04-23T09:46:41.633Z,100096.47
2023-04-23T09:49:10.564Z,100090.16
2023-04-23T09:51:40.818Z,100087.72
2023-04-23T09:54:13.346Z,100093.19
2023-04-23T09:56:41.332Z,100076.13
2023-04-23T09:59:32.488Z,100085.34
2023-04-23T10:02:09.612Z,100088.72
2023-04-23T10:04:37.544Z,100091.47
2023-04-23T10:09:44.302Z,100101.44
2023-04-23T10:12:28.961Z,100099.72
2023-04-23T10:15:00.818Z,100101.38
2023-04-23T10:17:28.585Z,100104.63
2023-04-23T10:19:56.868Z,100102.53
2023-04-23T10:22:29.558Z,100104.81
2023-04-23T10:24:59.261Z,100096.03
2023-04-23T10:27:40.274Z,100087.97
2023-04-23T10:30:17.375Z,100089.34
2023-04-23T10:32:46.102Z,100090.84
2023-04-23T10:35:13.754Z,100087.03
2023-04-23T10:37:43.782Z,100097.16
2023-04-23T10:40:15.171Z,100091.25
2023-04-23T10:42:45.401Z,100091.84
2023-04-23T10:47:48.079Z,100086.13
2023-04-23T10:50:24.389Z,100083.50
2023-04-23T10:52:54.526Z,100088.91
2023-04-23T10:55:24.421Z,100083.88
2023-04-23T10:58:03.255Z,100090.78
2023-04-23T11:00:45.487Z,100070.19
2023-04-23T11:03:32.123Z,100080.97
2023-04-23T11:06:02.918Z,100069.72
2023-04-23T11:08:33.094Z,100065.25
2023-04-23T11:11:02.423Z,100063.25
2023-04-23T11:13:31.304Z,100064.31
2023-04-23T11:16:15.591Z,100057.09
2023-04-23T11:18:56.481Z,100060.94
2023-04-23T11:21:24.109Z,100053.00
2023-04-23T11:23:53.062Z,100055.03
2023-04-23T11:26:22.524Z,100051.50
2023-04-23T11:28:53.616Z,100056.72
2023-04-23T11:31:21.351Z,100051.25
2023-04-23T11:33:48.965Z,100053.91
2023-04-23T11:36:16.935Z,100083.66
2023-04-23T11:38:46.164Z,100083.84
2023-04-23T11:41:15.408Z,100078.75
2023-04-23T11:43:43.595Z,100081.88
2023-04-23T11:46:11.261Z,100077.72
2023-04-23T11:48:38.946Z,100080.41
2023-04-23T11:51:06.673Z,100078.88
2023-04-23T11:53:35.214Z,100065.88
2023-04-23T11:56:02.952Z,100073.38
2023-04-23T11:58:31.864Z,100061.78
2023-04-23T12:01:00.702Z,100061.88
2023-04-23T12:03:29.959Z,100059.97
2023-04-23T12:05:57.831Z,100063.19
2023-04-23T12:08:25.776Z,100066.41
2023-04-23T12:10:55.035Z,100058.81
2023-04-23T12:13:24.212Z,100052.34
2023-04-23T12:15:56.526Z,100046.69
2023-04-23T12:18:28.876Z,100039.72
2023-04-23T12:20:57.490Z,100040.22
2023-04-23T12:23:28.074Z,100042.44
2023-04-23T12:25:56.659Z,100041.34
2023-04-23T12:30:53.923Z,100049.00
2023-04-23T12:33:21.889Z,100033.75
2023-04-23T12:35:51.804Z,100044.28
2023-04-23T12:38:24.515Z,100044.53
2023-04-23T12:40:52.569Z,100042.44
2023-04-23T12:43:20.231Z,100038.41
2023-04-23T12:45:47.947Z,100037.88
2023-04-23T12:48:16.983Z,100033.22
2023-04-23T12:50:46.037Z,100026.16
2023-04-23T12:53:14.080Z,100024.50
2023-04-23T12:55:43.220Z,100023.84
2023-04-23T12:58:10.888Z,100026.38
2023-04-23T13:00:38.673Z,100021.31
2023-04-23T13:03:06.429Z,100015.03
2023-04-23T13:05:35.550Z,100016.69
2023-04-23T13:08:03.149Z,100014.97
2023-04-23T13:10:30.991Z,100010.78
2023-04-23T13:12:58.660Z,100004.50
2023-04-23T13:15:27.115Z,100005.84
2023-04-23T13:17:54.948Z,100002.59
2023-04-23T13:20:22.709Z,99990.59
2023-04-23T13:22:51.713Z,99997.63
2023-04-23T13:25:19.486Z,99988.09
2023-04-23T13:27:47.122Z,99983.22
2023-04-23T13:30:15.151Z,99978.00
2023-04-23T13:32:42.803Z,99972.47
2023-04-23T13:35:11.023Z,99964.66
2023-04-23T13:37:41.101Z,99963.69
2023-04-23T13:40:14.210Z,99958.78
2023-04-23T13:42:41.820Z,99953.38
2023-04-23T13:45:09.952Z,99945.34
2023-04-23T13:47:37.648Z,99949.66
2023-04-23T13:50:06.943Z,99937.03
2023-04-23T13:52:34.845Z,99930.41
2023-04-23T13:55:03.990Z,99933.44
2023-04-23T14:00:00.616Z,99916.50
2023-04-23T14:02:28.422Z,99914.16
2023-04-23T14:04:56.278Z,99915.00
2023-04-23T14:09:52.895Z,99904.44
2023-04-23T14:12:20.782Z,99914.97
2023-04-23T14:14:49.434Z,99920.50
2023-04-23T14:17:18.404Z,99915.97
2023-04-23T14:19:46.016Z,99901.56
2023-04-23T14:22:13.965Z,99897.41
2023-04-23T14:24:47.255Z,99901.06
2023-04-23T14:27:14.982Z,99903.75
2023-04-23T14:29:47.342Z,99898.13
2023-04-23T14:32:15.057Z,99901.06
2023-04-23T14:34:45.149Z,99894.19
2023-04-23T14:37:12.901Z,99883.50
2023-04-23T14:39:42.289Z,99881.47
2023-04-23T14:42:10.463Z,99872.66
2023-04-23T14:44:38.149Z,99870.22
2023-04-23T14:47:08.081Z,99867.53
2023-04-23T14:49:35.864Z,99864.50
2023-04-23T14:52:04.965Z,99863.09
2023-04-23T14:54:32.615Z,99861.94
2023-04-23T14:57:00.540Z,99854.63
2023-04-23T14:59:28.303Z,99856.53
2023-04-23T15:01:56.609Z,99850.88
2023-04-23T15:04:24.559Z,99852.78
2023-04-23T15:06:52.257Z,99851.44
2023-04-23T15:09:21.207Z,99837.97
2023-04-23T15:11:48.883Z,99836.03
2023-04-23T15:14:21.497Z,99832.25
2023-04-23T15:16:50.052Z,99831.50
2023-04-23T15:19:19.178Z,99826.69
2023-04-23T15:21:47.265Z,99831.09
2023-04-23T15:24:15.322Z,99832.34
2023-04-23T15:26:45.825Z,99836.47
2023-04-23T15:29:14.157Z,99832.41
2023-04-23T15:31:42.609Z,99833.72
2023-04-23T15:34:11.605Z,99829.91
2023-04-23T15:36:39.330Z,99826.38
2023-04-23T15:39:07.564Z,99824.25
2023-04-23T15:41:39.418Z,99825.59
2023-04-23T15:44:12.354Z,99812.53
2023-04-23T15:46:40.798Z,99809.53
2023-04-23T15:49:08.714Z,99810.19
2023-04-23T15:51:36.701Z,99812.28
2023-04-23T15:54:07.974Z,99817.44
2023-04-23T15:56:35.912Z,99812.56
2023-04-23T15:59:03.605Z,99813.03
2023-04-23T16:01:32.684Z,99814.34
2023-04-23T16:06:31.787Z,99801.72
2023-04-23T16:08:59.505Z,99791.97
2023-04-23T16:11:28.247Z,99793.81
2023-04-23T16:13:57.063Z,99795.09
2023-04-23T16:16:24.838Z,99793.69
2023-04-23T16:18:55.689Z,99793.31
2023-04-23T16:21:24.094Z,99793.88
2023-04-23T16:23:52.047Z,99789.94
2023-04-23T16:26:19.784Z,99790.38
2023-04-23T16:28:52.227Z,99786.38
2023-04-23T16:31:33.113Z,99779.66
2023-04-23T16:34:02.271Z,99777.44
2023-04-23T16:36:30.209Z,99772.47
2023-04-23T16:38:58.082Z,99768.34
2023-04-23T16:41:25.747Z,99762.44
2023-04-23T16:43:53.520Z,99760.06
2023-04-23T16:46:21.369Z,99760.34
2023-04-23T16:48:49.116Z,99754.25
2023-04-23T16:51:18.328Z,99743.81
2023-04-23T16:53:45.966Z,99745.00
2023-04-23T16:56:13.900Z,99747.94
2023-04-23T16:58:41.698Z,99740.16
2023-04-23T17:01:09.399Z,99743.09
2023-04-23T17:03:37.376Z,99739.75
2023-04-23T17:06:11.275Z,99738.25
2023-04-23T17:08:40.936Z,99727.72
2023-04-23T17:11:09.011Z,99724.47
2023-04-23T17:13:37.548Z,99720.38
2023-04-23T17:16:05.294Z,99716.19
2023-04-23T17:18:33.352Z,99717.38
2023-04-23T17:21:01.313Z,99717.66
2023-04-23T17:23:28.973Z,99711.84
2023-04-23T17:25:57.998Z,99709.53
2023-04-23T17:28:25.644Z,99713.53
2023-04-23T17:30:55.764Z,99708.50
2023-04-23T17:33:24.389Z,99703.53
2023-04-23T17:35:53.228Z,99700.25
2023-04-23T17:38:21.320Z,99697.84
2023-04-23T17:40:49.837Z,99698.13
2023-04-23T17:43:19.053Z,99702.94
2023-04-23T17:45:47.665Z,99698.84
2023-04-23T17:48:16.441Z,99697.38
2023-04-23T17:50:44.603Z,99705.66
2023-04-23T17:53:12.264Z,99699.72
2023-04-23T17:55:41.296Z,99699.91
2023-04-23T17:58:09.990Z,99700.19
2023-04-23T18:00:41.789Z,99701.34
2023-04-23T18:03:11.258Z,99704.34
2023-04-23T18:05:38.959Z,99699.25
2023-04-23T18:08:07.748Z,99688.84
2023-04-23T18:10:35.700Z,99703.47
2023-04-23T18:13:04.761Z,99705.53
2023-04-23T18:15:33.537Z,99702.31
2023-04-23T18:18:02.573Z,99701.78
2023-04-23T18:20:31.957Z,99698.56
2023-04-23T18:22:59.631Z,99701.47
2023-04-23T18:25:27.537Z,99698.19
2023-04-23T18:27:55.190Z,99703.94
2023-04-23T18:30:23.518Z,99702.44
2023-04-23T18:33:00.654Z,99706.38
2023-04-23T18:35:29.745Z,99719.13
2023-04-23T18:38:06.684Z,99705.06
2023-04-23T18:40:34.547Z,99708.00
2023-04-23T18:43:02.676Z,99706.41
2023-04-23T18:45:30.378Z,99703.09
2023-04-23T18:47:59.463Z,99707.75
2023-04-23T18:50:42.644Z,99697.31
2023-04-23T18:53:10.409Z,99702.03
2023-04-23T18:55:38.140Z,99697.81
2023-04-23T18:58:05.821Z,99698.97
2023-04-23T19:00:33.588Z,99708.13
2023-04-23T19:03:06.500Z,99696.72
2023-04-23T19:05:38.520Z,99698.75
2023-04-23T19:08:07.177Z,99699.03
2023-04-23T19:10:34.847Z,99688.53
2023-04-23T19:13:02.489Z,99696.72
2023-04-23T19:15:31.201Z,99701.41
2023-04-23T19:17:59.834Z,99682.00
2023-04-23T19:20:28.086Z,99691.06
2023-04-23T19:22:57.226Z,99695.72
2023-04-23T19:25:24.920Z,99687.94
2023-04-23T19:27:52.682Z,99691.72
2023-04-23T19:30:20.426Z,99696.31
2023-04-23T19:32:48.113Z,99684.03
2023-04-23T19:35:15.982Z,99688.59
2023-04-23T19:37:43.635Z,99688.81
2023-04-23T19:40:14.611Z,99682.69
2023-04-23T19:42:42.268Z,99682.03
2023-04-23T19:45:10.553Z,99679.53
2023-04-23T19:47:40.022Z,99664.53
2023-04-23T19:50:09.821Z,99662.09
2023-04-23T19:52:37.568Z,99660.47
2023-04-23T19:55:06.239Z,99666.91
2023-04-23T19:57:35.603Z,99668.84
2023-04-23T20:00:05.019Z,99668.09
2023-04-23T20:02:34.245Z,99661.97
2023-04-23T20:05:03.158Z,99661.22
2023-04-23T20:07:30.938Z,99662.22
2023-04-23T20:09:58.571Z,99650.78
2023-04-23T20:12:26.272Z,99647.34
2023-04-23T20:14:55.824Z,99650.16
2023-04-23T20:17:23.717Z,99646.72
2023-04-23T20:19:51.423Z,99638.88
2023-04-23T20:22:19.282Z,99641.59
2023-04-23T20:24:49.093Z,99642.59
2023-04-23T20:27:17.250Z,99644.44
2023-04-23T20:29:44.944Z,99640.13
2023-04-23T20:32:14.184Z,99636.69
2023-04-23T20:34:41.852Z,99640.31
2023-04-23T20:37:10.330Z,99627.13
2023-04-23T20:39:38.339Z,99630.72
2023-04-23T20:42:07.091Z,99621.00
2023-04-23T20:44:34.806Z,99623.81
2023-04-23T20:47:05.686Z,99621.22
2023-04-23T20:49:34.934Z,99608.81
2023-04-23T20:52:02.708Z,99609.84
2023-04-23T20:54:30.919Z,99606.41
2023-04-23T20:56:58.642Z,99602.03
2023-04-23T20:59:26.342Z,99599.56
2023-04-23T21:01:54.176Z,99603.13
2023-04-23T21:04:21.999Z,99597.06
2023-04-23T21:06:51.524Z,99600.81
2023-04-23T21:09:19.216Z,99586.63
2023-04-23T21:11:46.904Z,99585.84
2023-04-23T21:14:14.581Z,99570.91
2023-04-23T21:16:42.212Z,99572.78
2023-04-23T21:19:09.874Z,99574.66
2023-04-23T21:21:37.525Z,99573.88
2023-04-23T21:24:07.822Z,99569.59
2023-04-23T21:26:35.463Z,99567.06
2023-04-23T21:29:03.210Z,99558.25
2023-04-23T21:31:42.145Z,99564.56
2023-04-23T21:34:09.880Z,99558.50
2023-04-23T21:36:37.718Z,99556.78
2023-04-23T21:39:08.054Z,99564.03
2023-04-23T21:41:35.867Z,99565.03
2023-04-23T21:44:03.649Z,99558.00
2023-04-23T21:46:32.164Z,99565.19
2023-04-23T21:48:59.944Z,99570.63
2023-04-23T21:51:28.071Z,99556.59
2023-04-23T21:53:55.761Z,99563.75
2023-04-23T21:56:24.790Z,99564.78
2023-04-23T21:58:52.492Z,99564.88
2023-04-23T22:01:20.378Z,99557.00
2023-04-23T22:03:48.321Z,99549.16
2023-04-23T22:06:17.483Z,99553.59
2023-04-23T22:08:46.325Z,99545.69
2023-04-23T22:11:14.658Z,99545.81
2023-04-23T22:13:43.723Z,99558.28
2023-04-23T22:16:24.581Z,99549.53
2023-04-23T22:18:55.760Z,99536.31
2023-04-23T22:21:23.600Z,99526.59
2023-04-23T22:23:51.295Z,99527.56
2023-04-23T22:26:18.910Z,99539.19
2023-04-23T22:28:48.174Z,99531.28
2023-04-23T22:31:15.937Z,99520.72
2023-04-23T22:33:43.827Z,99527.78
2023-04-23T22:36:11.552Z,99525.16
2023-04-23T22:38:39.478Z,99518.91
2023-04-23T22:41:07.828Z,99519.84
2023-04-23T22:43:35.467Z,99510.06
2023-04-23T22:46:04.642Z,99503.88
2023-04-23T22:48:32.317Z,99501.19
2023-04-23T22:51:00.019Z,99496.72
2023-04-23T22:53:27.647Z,99493.13
2023-04-23T22:55:55.278Z,99493.09
2023-04-23T22:58:23.126Z,99495.72
2023-04-23T23:00:51.462Z,99483.31
2023-04-23T23:03:20.613Z,99484.19
2023-04-23T23:05:48.491Z,99490.34
2023-04-23T23:08:16.209Z,99484.13
2023-04-23T23:10:43.874Z,99473.50
2023-04-23T23:13:11.556Z,99469.00
2023-04-23T23:15:39.245Z,99470.78
2023-04-23T23:18:07.773Z,99476.03
2023-04-23T23:20:36.852Z,99505.41
2023-04-23T23:23:04.603Z,99501.88
2023-04-23T23:25:32.667Z,99499.28
2023-04-23T23:28:00.308Z,99495.75
2023-04-23T23:30:27.939Z,99492.34
2023-04-23T23:32:56.845Z,99503.06
2023-04-23T23:35:24.548Z,99492.56
2023-04-23T23:37:53.729Z,99487.34
2023-04-23T23:40:21.622Z,99489.13
2023-04-23T23:42:49.316Z,99497.19
2023-04-23T23:45:17.078Z,99491.00
2023-04-23T23:47:46.963Z,99490.09
2023-04-23T23:50:14.747Z,99479.47
2023-04-23T23:52:42.381Z,99482.09
2023-04-23T23:55:11.951Z,99470.56
2023-04-23T23:57:40.330Z,99474.94
